createdAt,value
2023-03-27T00:01:11.765Z,2.40
2023-03-27T00:06:17.230Z,3.13
2023-03-27T00:11:21.419Z,2.10
2023-03-27T00:16:26.599Z,2.08
2023-03-27T00:21:28.688Z,2.50
2023-03-27T00:26:30.724Z,5.30
2023-03-27T00:31:32.520Z,3.97
2023-03-27T00:36:34.275Z,3.83
2023-03-27T00:41:35.894Z,4.22
2023-03-27T00:46:44.187Z,5.35
2023-03-27T00:51:47.662Z,3.83
2023-03-27T00:56:49.964Z,10.07
2023-03-27T01:01:52.740Z,10.48
2023-03-27T01:06:56.274Z,8.48
2023-03-27T01:12:17.906Z,12.73
2023-03-27T01:17:44.181Z,12.85
2023-03-27T01:22:58.300Z,9.40
2023-03-27T01:28:32.042Z,12.32
2023-03-27T01:33:53.687Z,10.02
2023-03-27T01:39:22.423Z,10.95
2023-03-27T01:44:43.214Z,5.88
2023-03-27T01:49:55.613Z,8.23
2023-03-27T01:55:03.532Z,8.10
2023-03-27T02:00:19.370Z,7.60
2023-03-27T02:05:30.596Z,10.90
2023-03-27T02:10:39.505Z,12.45
2023-03-27T02:15:50.885Z,8.32
2023-03-27T02:20:53.039Z,9.80
2023-03-27T02:25:55.149Z,7.32
2023-03-27T02:31:32.720Z,8.75
2023-03-27T02:36:57.838Z,7.97
2023-03-27T02:42:41.918Z,7.10
2023-03-27T02:47:51.870Z,11.50
2023-03-27T02:52:58.718Z,8.73
2023-03-27T02:58:05.579Z,6.70
2023-03-27T03:03:28.649Z,9.65
2023-03-27T03:08:40.605Z,9.77
2023-03-27T03:13:45.876Z,10.20
2023-03-27T03:18:47.601Z,6.05
2023-03-27T03:23:58.284Z,9.35
2023-03-27T03:29:01.984Z,9.88
2023-03-27T03:34:19.008Z,6.97
2023-03-27T03:39:22.255Z,12.07
2023-03-27T03:44:24.972Z,13.43
2023-03-27T03:49:27.973Z,10.45
2023-03-27T03:54:29.586Z,5.70
2023-03-27T03:59:31.288Z,8.45
2023-03-27T04:05:11.519Z,7.88
2023-03-27T04:10:14.710Z,7.18
2023-03-27T04:15:17.006Z,5.97
2023-03-27T04:20:41.649Z,4.07
2023-03-27T04:25:47.265Z,7.93
2023-03-27T04:30:54.729Z,5.30
2023-03-27T04:36:15.123Z,6.75
2023-03-27T04:41:29.642Z,6.25
2023-03-27T04:46:32.004Z,8.30
2023-03-27T04:51:41.921Z,7.20
2023-03-27T04:56:46.555Z,8.35
2023-03-27T05:01:50.818Z,4.40
2023-03-27T05:07:05.814Z,6.25
2023-03-27T05:12:07.934Z,3.97
2023-03-27T05:17:17.308Z,6.53
2023-03-27T05:22:22.199Z,5.78
2023-03-27T05:27:35.641Z,5.85
2023-03-27T05:32:38.765Z,4.35
2023-03-27T05:38:01.343Z,5.43
2023-03-27T05:43:26.460Z,6.10
2023-03-27T05:48:28.760Z,5.63
2023-03-27T05:53:41.008Z,4.13
2023-03-27T05:58:54.123Z,7.75
2023-03-27T06:04:00.051Z,4.82
2023-03-27T06:09:37.334Z,4.32
2023-03-27T06:14:59.185Z,6.18
2023-03-27T06:20:13.055Z,3.75
2023-03-27T06:25:20.237Z,2.70
2023-03-27T06:30:24.887Z,2.35
2023-03-27T06:35:55.627Z,4.20
2023-03-27T06:41:04.801Z,5.85
2023-03-27T06:46:35.086Z,5.50
2023-03-27T06:51:52.411Z,4.05
2023-03-27T06:56:56.412Z,4.60
2023-03-27T07:01:58.858Z,5.95
2023-03-27T07:07:09.679Z,2.67
2023-03-27T07:12:15.495Z,2.35
2023-03-27T07:17:20.405Z,2.05
2023-03-27T07:22:27.385Z,2.80
2023-03-27T07:32:38.090Z,2.85
2023-03-27T07:37:42.956Z,1.33
2023-03-27T07:43:07.206Z,2.33
2023-03-27T07:48:17.467Z,4.57
2023-03-27T07:53:33.474Z,2.78
2023-03-27T07:58:45.429Z,3.35
2023-03-27T08:03:52.914Z,1.98
2023-03-27T08:08:57.073Z,2.20
2023-03-27T08:14:01.951Z,1.23
2023-03-27T08:19:06.210Z,5.00
2023-03-27T08:24:12.710Z,2.05
2023-03-27T08:29:44.977Z,1.40
2023-03-27T08:34:48.070Z,1.27
2023-03-27T08:45:20.696Z,1.52
2023-03-27T08:50:33.685Z,2.08
2023-03-27T08:55:57.013Z,2.08
2023-03-27T09:01:39.861Z,1.70
2023-03-27T09:06:51.176Z,1.30
2023-03-27T09:12:39.661Z,1.77
2023-03-27T09:17:46.280Z,2.67
2023-03-27T09:23:20.940Z,2.20
2023-03-27T09:29:05.308Z,2.53
2023-03-27T09:34:18.017Z,1.52
2023-03-27T09:39:27.573Z,1.35
2023-03-27T09:44:45.401Z,1.55
2023-03-27T09:49:56.778Z,2.60
2023-03-27T09:55:31.274Z,2.47
2023-03-27T10:00:40.687Z,2.45
2023-03-27T10:05:43.625Z,1.83
2023-03-27T10:10:55.259Z,3.92
2023-03-27T10:16:21.877Z,2.10
2023-03-27T10:21:39.041Z,3.42
2023-03-27T10:26:41.533Z,3.28
2023-03-27T10:31:50.808Z,3.75
2023-03-27T10:37:29.530Z,2.90
2023-03-27T10:43:04.599Z,2.83
2023-03-27T10:48:08.073Z,4.55
2023-03-27T10:53:20.531Z,3.80
2023-03-27T10:58:52.097Z,1.95
2023-03-27T11:04:39.963Z,1.88
2023-03-27T11:09:56.503Z,1.75
2023-03-27T11:15:14.683Z,3.53
2023-03-27T11:20:32.975Z,3.53
2023-03-27T11:25:51.735Z,2.15
2023-03-27T11:31:12.243Z,3.88
2023-03-27T11:36:32.870Z,4.57
2023-03-27T11:41:53.809Z,2.17
2023-03-27T11:47:16.588Z,2.28
2023-03-27T11:52:26.989Z,2.97
2023-03-27T11:57:28.866Z,2.33
2023-03-27T12:03:01.773Z,1.98
2023-03-27T12:08:24.828Z,3.70
2023-03-27T12:13:58.278Z,3.42
2023-03-27T12:19:28.905Z,2.65
2023-03-27T12:25:26.243Z,3.95
2023-03-27T12:30:33.771Z,3.05
2023-03-27T12:35:42.652Z,2.85
2023-03-27T12:40:51.976Z,2.25
2023-03-27T12:46:13.064Z,2.67
2023-03-27T12:51:19.802Z,3.15
2023-03-27T12:56:32.153Z,1.85
2023-03-27T13:07:29.615Z,2.95
2023-03-27T13:12:51.351Z,3.70
2023-03-27T13:18:32.519Z,2.60
2023-03-27T13:23:40.899Z,3.35
2023-03-27T13:28:54.325Z,2.20
2023-03-27T13:34:16.263Z,2.25
2023-03-27T13:39:24.794Z,3.47
2023-03-27T13:45:04.591Z,2.97
2023-03-27T13:50:29.940Z,1.87
2023-03-27T13:55:47.416Z,2.53
2023-03-27T14:01:22.667Z,3.30
2023-03-27T14:06:37.128Z,1.13
2023-03-27T14:11:57.980Z,1.75
2023-03-27T14:17:28.341Z,3.67
2023-03-27T14:22:47.581Z,2.30
2023-03-27T14:27:55.414Z,3.53
2023-03-27T14:33:08.830Z,2.67
2023-03-27T14:38:31.952Z,3.38
2023-03-27T14:43:34.498Z,5.32
2023-03-27T14:48:40.159Z,1.92
2023-03-27T14:53:45.595Z,2.40
2023-03-27T14:58:55.910Z,2.72
2023-03-27T15:04:02.467Z,1.95
2023-03-27T15:09:14.349Z,1.98
2023-03-27T15:14:35.205Z,1.95
2023-03-27T15:19:48.495Z,0.90
2023-03-27T15:25:02.833Z,8.25
2023-03-27T15:30:28.182Z,1.38
2023-03-27T15:35:41.786Z,1.25
2023-03-27T15:40:46.775Z,1.08
2023-03-27T15:46:07.972Z,3.72
2023-03-27T15:51:11.160Z,1.95
2023-03-27T15:56:27.167Z,3.03
2023-03-27T16:01:35.720Z,2.10
2023-03-27T16:06:40.971Z,1.35
2023-03-27T16:11:46.795Z,1.33
2023-03-27T16:16:49.764Z,5.60
2023-03-27T16:21:56.377Z,2.20
2023-03-27T16:26:58.366Z,2.50
2023-03-27T16:32:00.353Z,2.40
2023-03-27T16:37:02.186Z,3.42
2023-03-27T16:42:04.059Z,2.38
2023-03-27T16:47:05.926Z,2.40
2023-03-27T16:52:08.225Z,2.45
2023-03-27T16:57:11.213Z,6.70
2023-03-27T17:02:13.291Z,5.60
2023-03-27T17:07:15.932Z,1.63
2023-03-27T17:12:17.781Z,1.63
2023-03-27T17:17:19.618Z,3.78
2023-03-27T17:22:21.559Z,2.42
2023-03-27T17:27:25.942Z,1.30
2023-03-27T17:32:30.313Z,2.55
2023-03-27T17:37:32.128Z,1.60
2023-03-27T17:42:34.258Z,1.75
2023-03-27T17:47:36.262Z,2.55
2023-03-27T17:52:38.148Z,2.20
2023-03-27T17:57:41.648Z,2.63
2023-03-27T18:02:44.199Z,2.08
2023-03-27T18:07:46.221Z,2.60
2023-03-27T18:12:48.228Z,2.03
2023-03-27T18:17:50.534Z,3.08
2023-03-27T18:22:52.473Z,1.60
2023-03-27T18:27:54.325Z,3.67
2023-03-27T18:32:56.447Z,2.60
2023-03-27T18:37:58.394Z,2.65
2023-03-27T18:43:00.492Z,1.98
2023-03-27T18:48:02.752Z,1.70
2023-03-27T18:53:05.008Z,1.35
2023-03-27T18:58:06.842Z,1.02
2023-03-27T19:03:14.721Z,1.65
2023-03-27T19:08:17.833Z,1.10
2023-03-27T19:13:19.472Z,1.15
2023-03-27T19:18:41.202Z,1.55
2023-03-27T19:23:49.824Z,0.82
2023-03-27T19:28:55.892Z,1.35
2023-03-27T19:33:57.663Z,3.17
2023-03-27T19:39:00.010Z,1.80
2023-03-27T19:44:01.689Z,2.00
2023-03-27T19:49:04.123Z,3.03
2023-03-27T19:54:35.541Z,1.40
2023-03-27T19:59:37.443Z,2.03
2023-03-27T20:04:39.359Z,2.30
2023-03-27T20:09:41.129Z,2.95
2023-03-27T20:14:46.494Z,2.05
2023-03-27T20:19:53.233Z,4.25
2023-03-27T20:24:55.734Z,2.42
2023-03-27T20:29:57.676Z,2.60
2023-03-27T20:35:03.376Z,2.20
2023-03-27T20:40:11.656Z,1.67
2023-03-27T20:45:19.541Z,1.02
2023-03-27T20:50:23.770Z,2.10
2023-03-27T20:55:33.598Z,0.90
2023-03-27T21:00:37.940Z,1.75
2023-03-27T21:05:41.225Z,2.28
2023-03-27T21:10:42.940Z,1.60
2023-03-27T21:15:44.591Z,2.40
2023-03-27T21:20:46.450Z,3.85
2023-03-27T21:25:50.574Z,3.90
2023-03-27T21:30:52.613Z,5.05
2023-03-27T21:35:54.342Z,3.08
2023-03-27T21:40:56.365Z,3.10
2023-03-27T21:46:03.375Z,2.67
2023-03-27T21:56:08.432Z,2.00
2023-03-27T22:01:10.129Z,1.98
2023-03-27T22:06:13.319Z,1.25
2023-03-27T22:11:15.549Z,2.88
2023-03-27T22:16:17.902Z,2.40
2023-03-27T22:21:25.473Z,2.08
2023-03-27T22:26:30.818Z,1.92
2023-03-27T22:31:32.648Z,1.25
2023-03-27T22:36:34.760Z,4.78
2023-03-27T22:41:36.463Z,4.13
2023-03-27T22:46:38.395Z,3.53
2023-03-27T22:51:40.366Z,3.03
2023-03-27T22:56:42.034Z,2.53
2023-03-27T23:01:44.153Z,3.92
2023-03-27T23:06:45.915Z,5.57
2023-03-27T23:11:47.556Z,4.18
2023-03-27T23:16:49.285Z,3.97
2023-03-27T23:21:51.064Z,4.93
2023-03-27T23:26:52.724Z,3.70
2023-03-27T23:31:54.401Z,1.60
2023-03-27T23:36:56.121Z,1.67
2023-03-27T23:41:57.754Z,5.72
2023-03-27T23:46:59.415Z,2.00
2023-03-27T23:52:01.024Z,12.85
2023-03-27T23:57:03.472Z,3.30
